Time;durP1;ratioP1;P1;durP2;ratioP2;P2;SDS_P1;SDS_P2;PMS_P1;PMS_P2;Temp;Humidity;BMP_temperature;BMP_pressure;BME280_temperature;BME280_humidity;BME280_pressure;Samples;Min_cycle;Max_cycle;Signal;HPM_P1;HPM_P2
2023/01/29 00:00:31;;;;;;;;;;;;;;;6.03;100.00;100875.09;4989269;28;20068;-86
2023/01/29 00:02:56;;;;;;;;;;;;;;;6.02;100.00;100868.97;4979500;28;19929;-92
2023/01/29 00:05:21;;;;;;;;;;;;;;;6.03;100.00;100876.00;4981504;28;19928;-89
2023/01/29 00:07:47;;;;;;;;;;;;;;;6.04;100.00;100877.72;4995754;28;19933;-85
2023/01/29 00:10:12;;;;;;;;;;;;;;;6.05;100.00;100873.31;4995802;28;20012;-88
2023/01/29 00:12:43;;;;;;;;;;;;;;;6.05;100.00;100868.06;4996880;28;19917;-91
2023/01/29 00:15:09;;;;;;;;;;;;;;;6.04;100.00;100861.94;4980605;28;20431;-91
2023/01/29 00:17:34;;;;;;;;;;;;;;;6.07;100.00;100863.69;4998796;28;19917;-91
2023/01/29 00:19:59;;;;;;;;;;;;;;;6.07;100.00;100866.31;5001580;28;20380;-90
2023/01/29 00:22:25;;;;;;;;;;;;;;;6.05;100.00;100861.06;5017131;28;19921;-85
2023/01/29 00:24:56;;;;;;;;;;;;;;;6.07;100.00;100861.06;4983038;28;19920;-95
2023/01/29 00:27:24;;;;;;;;;;;;;;;6.07;100.00;100861.91;4996271;28;20009;-87
2023/01/29 00:30:08;;;;;;;;;;;;;;;6.08;100.00;100857.50;4979277;28;19925;-87
2023/01/29 00:32:33;;;;;;;;;;;;;;;6.10;100.00;100845.25;4996406;28;19926;-86
2023/01/29 00:34:58;;;;;;;;;;;;;;;6.09;100.00;100854.88;4979192;28;20345;-88
2023/01/29 00:37:26;;;;;;;;;;;;;;;6.11;100.00;100842.59;4978218;28;19918;-85
2023/01/29 00:39:54;;;;;;;;;;;;;;;6.12;100.00;100848.72;4977430;28;19921;-87
2023/01/29 00:45:08;;;;;;;;;;;;;;;6.13;100.00;100858.38;4996217;28;19984;-91
2023/01/29 00:47:34;;;;;;;;;;;;;;;6.14;100.00;100853.09;4995766;28;20439;-89
2023/01/29 00:50:03;;;;;;;;;;;;;;;6.16;100.00;100855.72;4978688;28;20024;-94
2023/01/29 00:52:28;;;;;;;;;;;;;;;6.16;100.00;100847.84;4994489;28;19922;-86
2023/01/29 00:54:59;;;;;;;;;;;;;;;6.14;100.00;100855.75;4997769;28;20424;-91
2023/01/29 00:57:29;;;;;;;;;;;;;;;6.16;100.00;100856.59;4999866;28;19963;-87
2023/01/29 00:59:54;;;;;;;;;;;;;;;6.16;100.00;100858.34;5015099;28;20012;-88
2023/01/29 01:05:16;;;;;;;;;;;;;;;6.16;100.00;100858.34;4995854;28;19941;-90
2023/01/29 03:22:57;;;;;;;;;;;;;;;2.57;100.00;100854.06;5102066;23;19925;-87
2023/01/29 03:33:47;;;;;;;;;;;;;;;2.51;100.00;100848.78;5057208;28;19928;-88
2023/01/29 03:36:15;;;;;;;;;;;;;;;2.44;100.00;100857.44;5055156;28;20343;-85
2023/01/29 03:38:41;;;;;;;;;;;;;;;2.94;100.00;100850.81;5056514;28;19924;-85
2023/01/29 03:41:26;;;;;;;;;;;;;;;3.56;100.00;100844.06;5056319;28;19917;-85
2023/01/29 03:44:00;;;;;;;;;;;;;;;3.91;100.00;100843.25;5038460;28;20398;-85
2023/01/29 03:46:31;;;;;;;;;;;;;;;4.12;100.00;100843.28;5056350;28;20322;-87
2023/01/29 03:49:07;;;;;;;;;;;;;;;4.30;100.00;100846.78;5056474;28;19917;-89
2023/01/29 03:51:53;;;;;;;;;;;;;;;4.43;100.00;100848.50;5055534;28;19959;-92
2023/01/29 03:54:25;;;;;;;;;;;;;;;4.55;100.00;100851.13;5040372;28;19994;-91
2023/01/29 03:57:10;;;;;;;;;;;;;;;4.65;100.00;100848.50;5039991;28;20434;-91
2023/01/29 03:59:45;;;;;;;;;;;;;;;4.73;100.00;100847.59;5061183;28;19955;-90
2023/01/29 04:02:12;;;;;;;;;;;;;;;4.83;100.00;100850.19;5062468;28;19924;-92
2023/01/29 04:04:40;;;;;;;;;;;;;;;4.91;100.00;100843.16;5059083;28;20280;-90
2023/01/29 04:07:13;;;;;;;;;;;;;;;4.96;100.00;100835.28;5055713;28;19916;-86
2023/01/29 04:09:41;;;;;;;;;;;;;;;5.03;100.00;100837.03;5056235;28;19916;-85
2023/01/29 04:12:08;;;;;;;;;;;;;;;5.08;100.00;100840.50;5055990;28;20062;-84
2023/01/29 04:14:34;;;;;;;;;;;;;;;5.13;100.00;100838.72;5055846;28;20279;-85
2023/01/29 04:17:02;;;;;;;;;;;;;;;5.17;100.00;100845.72;5037853;28;20390;-86
2023/01/29 04:19:27;;;;;;;;;;;;;;;5.21;100.00;100843.97;5037866;28;20394;-86
2023/01/29 04:22:00;;;;;;;;;;;;;;;5.25;100.00;100838.69;5031843;28;19917;-86
2023/01/29 04:24:26;;;;;;;;;;;;;;;5.28;100.00;100832.53;5037825;28;19917;-87
2023/01/29 04:26:59;;;;;;;;;;;;;;;5.32;100.00;100828.16;5037684;28;19916;-86
2023/01/29 04:29:37;;;;;;;;;;;;;;;5.35;100.00;100825.50;5037729;28;19964;-85
2023/01/29 04:32:14;;;;;;;;;;;;;;;5.37;100.00;100826.38;5055456;28;20007;-86
2023/01/29 04:34:58;;;;;;;;;;;;;;;5.39;100.00;100824.59;5055653;28;20007;-88
2023/01/29 04:37:36;;;;;;;;;;;;;;;5.43;100.00;100831.59;5036291;28;20344;-86
2023/01/29 04:40:20;;;;;;;;;;;;;;;5.49;100.00;100833.31;5037355;28;20012;-87
2023/01/29 04:42:48;;;;;;;;;;;;;;;5.50;100.00;100828.03;5032959;28;19923;-88
2023/01/29 04:45:20;;;;;;;;;;;;;;;5.53;100.00;100827.16;5037347;28;19917;-87
2023/01/29 04:47:57;;;;;;;;;;;;;;;5.56;100.00;100829.78;5037252;28;19916;-87
2023/01/29 04:50:22;;;;;;;;;;;;;;;5.57;100.00;100829.78;5037291;28;19963;-87
2023/01/29 04:53:10;;;;;;;;;;;;;;;5.60;100.00;100834.13;5035934;28;19952;-87
2023/01/29 04:55:48;;;;;;;;;;;;;;;5.62;100.00;100843.75;5037231;28;19986;-87
2023/01/29 04:58:20;;;;;;;;;;;;;;;5.65;100.00;100835.00;5055193;28;19923;-88
2023/01/29 05:00:48;;;;;;;;;;;;;;;5.64;100.00;100841.13;5054992;28;20007;-87
2023/01/29 13:54:15;;;;;;;;;;;;;;;6.20;100.00;100657.41;5266254;22;20380;-92
2023/01/29 13:57:00;;;;;;;;;;;;;;;6.19;100.00;100671.47;4992200;28;20380;-89
2023/01/29 13:59:44;;;;;;;;;;;;;;;6.20;100.00;100677.59;5014296;28;19984;-88
2023/01/29 14:02:23;;;;;;;;;;;;;;;5.40;100.00;100666.03;5014271;28;20388;-89
2023/01/29 14:04:48;;;;;;;;;;;;;;;4.43;100.00;100666.56;5014283;28;19925;-90
2023/01/29 14:10:19;;;;;;;;;;;;;;;3.93;100.00;100664.06;5000215;28;19921;-87
2023/01/29 14:12:45;;;;;;;;;;;;;;;3.82;100.00;100657.97;4996517;28;20329;-88
2023/01/29 14:15:15;;;;;;;;;;;;;;;3.69;100.00;100649.25;5013683;28;19946;-86
2023/01/29 14:17:53;;;;;;;;;;;;;;;3.63;100.00;100650.09;4996359;28;19939;-91
2023/01/29 14:20:22;;;;;;;;;;;;;;;3.53;100.00;100660.63;5014000;28;19924;-86
2023/01/29 14:22:55;;;;;;;;;;;;;;;3.37;100.00;100655.38;5012511;28;19928;-89
2023/01/29 14:25:26;;;;;;;;;;;;;;;3.37;100.00;100659.75;5013809;28;19917;-94
2023/01/29 14:27:52;;;;;;;;;;;;;;;3.32;100.00;100651.88;5013641;28;19972;-90
2023/01/29 14:30:17;;;;;;;;;;;;;;;3.24;100.00;100648.38;5014001;28;19921;-92
2023/01/29 14:32:46;;;;;;;;;;;;;;;3.25;100.00;100643.09;5013795;28;19924;-91
2023/01/29 14:35:32;;;;;;;;;;;;;;;3.15;100.00;100646.59;5013741;28;19924;-89
2023/01/29 14:38:03;;;;;;;;;;;;;;;3.14;100.00;100646.59;4994755;28;19922;-87
2023/01/29 14:40:29;;;;;;;;;;;;;;;3.05;100.00;100643.09;4996204;28;19922;-90
2023/01/29 14:43:06;;;;;;;;;;;;;;;3.04;100.00;100646.59;4996497;28;19918;-90
2023/01/29 14:45:34;;;;;;;;;;;;;;;2.98;100.00;100636.09;4996043;28;19917;-90
2023/01/29 14:48:01;;;;;;;;;;;;;;;2.94;100.00;100641.34;5013344;28;19917;-91
2023/01/29 14:50:38;;;;;;;;;;;;;;;2.94;100.00;100636.13;5014031;28;19953;-93
2023/01/29 14:53:03;;;;;;;;;;;;;;;2.86;100.00;100630.84;4999699;28;19924;-86
2023/01/29 14:55:34;;;;;;;;;;;;;;;2.88;100.00;100629.09;5053585;28;19917;-87
2023/01/29 14:58:00;;;;;;;;;;;;;;;2.83;100.00;100636.09;5035666;28;19916;-90
2023/01/29 15:00:39;;;;;;;;;;;;;;;2.86;100.00;100633.47;5053816;28;19970;-93
2023/01/29 15:03:12;;;;;;;;;;;;;;;2.78;100.00;100637.81;5053643;28;20367;-89
2023/01/29 15:05:38;;;;;;;;;;;;;;;2.77;100.00;100630.84;5053259;28;19942;-88
2023/01/29 15:08:06;;;;;;;;;;;;;;;2.74;100.00;100623.84;5033766;28;19917;-89
2023/01/29 15:10:36;;;;;;;;;;;;;;;2.71;100.00;100627.34;5053108;28;19917;-87
2023/01/29 15:13:23;;;;;;;;;;;;;;;2.70;100.00;100629.94;5035290;28;20386;-90
2023/01/29 15:15:51;;;;;;;;;;;;;;;2.70;100.00;100628.19;5035217;28;19917;-90
2023/01/29 15:18:17;;;;;;;;;;;;;;;2.65;100.00;100631.66;5035287;28;19912;-87
2023/01/29 15:21:10;;;;;;;;;;;;;;;;;;;;;
2023/01/29 15:24:06;;;;;;;;;;;;;;;;;;;;;
2023/01/29 15:26:32;;;;;;;;;;;;;;;2.64;100.00;100635.16;5053541;28;19916;-86
2023/01/29 15:29:07;;;;;;;;;;;;;;;2.64;100.00;100636.03;5038743;28;20007;-85
2023/01/29 15:31:36;;;;;;;;;;;;;;;2.64;100.00;100635.16;5039088;28;19917;-92
2023/01/29 15:34:05;;;;;;;;;;;;;;;2.58;100.00;100633.38;5056782;28;19931;-85
2023/01/29 15:36:30;;;;;;;;;;;;;;;2.63;100.00;100628.16;5055247;28;20019;-90
2023/01/29 15:39:26;;;;;;;;;;;;;;;2.60;100.00;100631.66;5038612;28;20012;-87
2023/01/29 15:42:04;;;;;;;;;;;;;;;2.51;100.00;100640.34;5018635;28;19916;-87
2023/01/29 15:44:29;;;;;;;;;;;;;;;2.53;100.00;100642.97;5056559;28;20317;-88
2023/01/29 15:46:57;;;;;;;;;;;;;;;2.52;100.00;100641.19;5038795;28;20023;-88
2023/01/29 15:49:42;;;;;;;;;;;;;;;2.50;100.00;100640.34;5033631;28;19921;-88
2023/01/29 15:52:23;;;;;;;;;;;;;;;2.47;100.00;100628.13;5054467;28;19927;-88
2023/01/29 15:54:51;;;;;;;;;;;;;;;2.54;100.00;100624.66;5038278;28;20363;-89
2023/01/29 15:57:22;;;;;;;;;;;;;;;3.21;100.00;100616.94;5038505;28;19925;-87
2023/01/29 15:59:51;;;;;;;;;;;;;;;3.70;100.00;100614.31;5056057;28;19913;-89
2023/01/29 16:02:28;;;;;;;;;;;;;;;3.98;100.00;100603.75;5038404;28;19970;-90
2023/01/29 16:04:56;;;;;;;;;;;;;;;4.18;100.00;100599.31;5056188;28;19920;-89
2023/01/29 16:07:22;;;;;;;;;;;;;;;4.34;100.00;100607.09;5037018;28;19916;-87
2023/01/29 16:09:47;;;;;;;;;;;;;;;4.45;100.00;100607.94;5055999;28;20283;-86
2023/01/29 16:12:13;;;;;;;;;;;;;;;4.53;100.00;100606.16;5055774;28;20376;-87
2023/01/29 16:14:39;;;;;;;;;;;;;;;4.65;100.00;100599.94;5056052;28;19959;-85
2023/01/29 16:17:25;;;;;;;;;;;;;;;4.73;100.00;100606.03;5055788;28;19924;-85
2023/01/29 16:19:57;;;;;;;;;;;;;;;4.80;100.00;100598.13;5055783;28;20287;-85
2023/01/29 16:22:23;;;;;;;;;;;;;;;4.88;100.00;100597.19;5054408;28;19940;-87
2023/01/29 16:24:51;;;;;;;;;;;;;;;4.96;100.00;100596.25;5037770;28;19925;-86
2023/01/29 16:27:17;;;;;;;;;;;;;;;5.01;100.00;100591.84;5055637;28;19917;-87
2023/01/29 16:29:42;;;;;;;;;;;;;;;5.06;100.00;100596.19;5055617;28;19975;-88
2023/01/29 16:32:12;;;;;;;;;;;;;;;5.11;100.00;100598.78;5037775;28;19917;-87
2023/01/29 16:34:42;;;;;;;;;;;;;;;5.16;100.00;100591.75;5055381;28;19927;-85
2023/01/29 16:37:16;;;;;;;;;;;;;;;5.21;100.00;100589.94;5035807;28;19921;-88
2023/01/29 16:39:44;;;;;;;;;;;;;;;5.25;100.00;100596.94;5055527;28;20330;-85
2023/01/29 16:42:11;;;;;;;;;;;;;;;5.27;100.00;100587.25;5055460;28;19953;-86
2023/01/29 16:44:44;;;;;;;;;;;;;;;5.31;100.00;100588.09;5055288;28;19917;-85
2023/01/29 16:47:13;;;;;;;;;;;;;;;5.34;100.00;100584.59;5055235;28;19917;-84
2023/01/29 16:49:41;;;;;;;;;;;;;;;5.38;100.00;100597.69;5037358;28;19921;-85
2023/01/29 16:52:21;;;;;;;;;;;;;;;5.42;100.00;100595.91;5054755;28;19917;-87
2023/01/29 16:54:47;;;;;;;;;;;;;;;5.43;100.00;100601.16;5037340;28;19928;-84
2023/01/29 16:57:17;;;;;;;;;;;;;;;5.48;100.00;100598.47;5055403;28;19917;-88
2023/01/29 16:59:43;;;;;;;;;;;;;;;5.49;100.00;100602.88;5055040;28;20380;-87
2023/01/29 17:02:16;;;;;;;;;;;;;;;5.53;100.00;100606.31;5054686;28;19955;-88
2023/01/29 17:04:41;;;;;;;;;;;;;;;5.53;100.00;100604.56;5054788;28;19924;-87
2023/01/29 17:07:14;;;;;;;;;;;;;;;5.56;100.00;100606.31;5053517;28;19920;-87
2023/01/29 17:09:41;;;;;;;;;;;;;;;5.59;100.00;100611.53;5054830;28;20279;-88
2023/01/29 17:12:08;;;;;;;;;;;;;;;5.60;100.00;100611.53;5054689;28;19923;-85
2023/01/29 17:14:37;;;;;;;;;;;;;;;5.62;100.00;100619.41;5036249;28;21337;-85
2023/01/29 17:17:02;;;;;;;;;;;;;;;5.64;100.00;100620.25;5036891;28;19917;-86
2023/01/29 17:19:29;;;;;;;;;;;;;;;5.66;100.00;100628.13;5054970;28;19990;-84
2023/01/29 17:21:55;;;;;;;;;;;;;;;5.68;100.00;100627.22;5035511;28;19917;-85
2023/01/29 17:24:20;;;;;;;;;;;;;;;5.69;100.00;100628.09;5054313;28;19920;-87
2023/01/29 17:26:46;;;;;;;;;;;;;;;5.71;100.00;100631.56;5054521;28;19962;-84
2023/01/29 17:29:17;;;;;;;;;;;;;;;5.73;100.00;100630.69;5054362;28;20284;-87
2023/01/29 17:31:43;;;;;;;;;;;;;;;5.79;100.00;100628.00;5054424;28;19916;-87
2023/01/29 17:34:11;;;;;;;;;;;;;;;5.72;100.00;100631.56;5054204;28;20398;-92
2023/01/29 17:36:36;;;;;;;;;;;;;;;5.73;100.00;100635.09;5052996;28;20012;-88
2023/01/29 17:39:04;;;;;;;;;;;;;;;5.74;100.00;100631.53;5036406;28;20032;-86
2023/01/29 17:41:32;;;;;;;;;;;;;;;5.75;100.00;100628.03;5054394;28;19963;-87
2023/01/29 17:43:57;;;;;;;;;;;;;;;5.75;100.00;100628.03;5036296;28;20384;-89
2023/01/29 17:46:26;;;;;;;;;;;;;;;5.77;100.00;100634.16;5054584;28;19964;-89
2023/01/29 17:48:51;;;;;;;;;;;;;;;5.79;100.00;100635.00;5053678;28;19917;-88
2023/01/29 17:51:17;;;;;;;;;;;;;;;5.80;100.00;100632.34;5053827;28;19920;-93
2023/01/29 17:53:43;;;;;;;;;;;;;;;5.80;100.00;100629.72;5052683;28;19929;-88
2023/01/29 17:56:20;;;;;;;;;;;;;;;5.81;100.00;100633.25;5036606;28;20290;-87
2023/01/29 17:58:45;;;;;;;;;;;;;;;5.82;100.00;100640.22;5054157;28;19916;-88
2023/01/29 18:01:10;;;;;;;;;;;;;;;5.83;100.00;100642.84;5053960;28;20369;-92
2023/01/29 18:03:36;;;;;;;;;;;;;;;5.85;100.00;100634.94;5054870;28;20360;-91
2023/01/29 18:06:01;;;;;;;;;;;;;;;5.86;100.00;100652.47;5054506;28;20264;-93
2023/01/29 18:08:31;;;;;;;;;;;;;;;5.87;100.00;100645.44;5052569;28;19921;-89
2023/01/29 18:10:57;;;;;;;;;;;;;;;5.88;100.00;100634.03;5053888;28;19917;-92
2023/01/29 18:13:22;;;;;;;;;;;;;;;5.89;100.00;100641.94;5053869;28;19943;-86
2023/01/29 18:15:47;;;;;;;;;;;;;;;5.88;100.00;100640.16;5036082;28;20363;-90
2023/01/29 18:18:14;;;;;;;;;;;;;;;5.90;100.00;100643.66;5036191;28;19963;-91
2023/01/29 18:20:39;;;;;;;;;;;;;;;5.91;100.00;100639.28;5035888;28;20364;-89
2023/01/29 18:23:05;;;;;;;;;;;;;;;5.92;100.00;100641.91;5034677;28;19924;-92
2023/01/29 18:25:31;;;;;;;;;;;;;;;5.92;100.00;100641.00;5036072;28;19912;-92
2023/01/29 18:28:00;;;;;;;;;;;;;;;5.92;100.00;100641.91;5036013;28;19916;-90
2023/01/29 18:30:26;;;;;;;;;;;;;;;5.95;100.00;100639.25;5035803;28;20016;-87
2023/01/29 18:32:52;;;;;;;;;;;;;;;5.95;100.00;100647.13;5035614;28;20407;-88
2023/01/29 18:35:17;;;;;;;;;;;;;;;5.95;100.00;100636.59;5053398;28;19921;-86
2023/01/29 18:37:42;;;;;;;;;;;;;;;5.96;100.00;100638.38;5051965;28;19913;-90
2023/01/29 18:40:08;;;;;;;;;;;;;;;5.97;100.00;100632.22;5053364;28;19962;-87
2023/01/29 18:42:34;;;;;;;;;;;;;;;5.98;100.00;100630.47;5035392;28;19921;-89
2023/01/29 18:45:00;;;;;;;;;;;;;;;5.99;100.00;100617.28;5053321;28;19921;-90
2023/01/29 18:47:25;;;;;;;;;;;;;;;6.00;100.00;100624.31;5035340;28;20011;-87
2023/01/29 18:49:50;;;;;;;;;;;;;;;5.99;100.00;100622.53;5053051;28;19971;-84
2023/01/29 18:52:16;;;;;;;;;;;;;;;5.99;100.00;100621.69;5034010;28;19963;-88
2023/01/29 18:54:42;;;;;;;;;;;;;;;6.00;100.00;100629.56;5038696;28;19928;-86
2023/01/29 18:57:07;;;;;;;;;;;;;;;6.02;100.00;100628.69;5034290;28;20364;-89
2023/01/29 18:59:32;;;;;;;;;;;;;;;6.03;100.00;100633.03;5036273;28;20277;-85
2023/01/29 19:01:57;;;;;;;;;;;;;;;6.03;100.00;100627.78;5045628;28;19943;-83
2023/01/29 19:04:25;;;;;;;;;;;;;;;6.05;100.00;100626.00;5037543;28;20019;-88
2023/01/29 19:06:50;;;;;;;;;;;;;;;6.05;100.00;100632.16;5035746;28;19932;-89
2023/01/29 19:09:16;;;;;;;;;;;;;;;6.07;100.00;100629.50;5037011;28;19917;-87
2023/01/29 19:11:41;;;;;;;;;;;;;;;6.05;100.00;100632.16;5019188;28;19924;-91
2023/01/29 19:14:06;;;;;;;;;;;;;;;6.06;100.00;100635.63;5040927;28;19925;-86
2023/01/29 19:16:31;;;;;;;;;;;;;;;6.07;100.00;100630.38;5047174;28;19928;-90
2023/01/29 19:18:57;;;;;;;;;;;;;;;6.08;100.00;100634.75;5018964;28;21644;-88
2023/01/29 19:21:23;;;;;;;;;;;;;;;6.07;100.00;100619.84;5036448;28;20056;-88
2023/01/29 19:23:48;;;;;;;;;;;;;;;6.08;100.00;100631.22;5028421;28;20000;-87
2023/01/29 19:26:14;;;;;;;;;;;;;;;6.08;100.00;100632.13;5023650;28;19987;-89
2023/01/29 19:28:40;;;;;;;;;;;;;;;6.09;100.00;100632.97;5019007;28;19929;-85
2023/01/29 19:31:05;;;;;;;;;;;;;;;6.09;100.00;100628.56;5021201;28;19928;-86
2023/01/29 19:33:31;;;;;;;;;;;;;;;6.09;100.00;100632.97;5046707;28;19917;-86
2023/01/29 19:35:57;;;;;;;;;;;;;;;6.09;100.00;100617.19;5042823;28;19943;-85
2023/01/29 19:38:23;;;;;;;;;;;;;;;6.10;100.00;100625.06;5044829;28;20418;-90
2023/01/29 19:40:48;;;;;;;;;;;;;;;6.11;100.00;100626.81;5049876;28;19960;-85
2023/01/29 19:43:16;;;;;;;;;;;;;;;6.12;100.00;100627.69;5053946;28;19929;-90
2023/01/29 19:45:52;;;;;;;;;;;;;;;;;;;;;
2023/01/29 19:48:20;;;;;;;;;;;;;;;6.13;100.00;100627.66;5040851;28;19920;-86
2023/01/29 19:51:08;;;;;;;;;;;;;;;6.13;100.00;100626.81;5053344;28;20027;-87
2023/01/29 19:53:34;;;;;;;;;;;;;;;6.12;100.00;100617.16;5016394;28;20008;-90
2023/01/29 19:56:01;;;;;;;;;;;;;;;6.14;100.00;100618.00;5035597;28;19924;-85
2023/01/29 19:58:27;;;;;;;;;;;;;;;6.16;100.00;100618.88;5035510;28;19924;-87
2023/01/29 20:00:53;;;;;;;;;;;;;;;6.16;100.00;100619.75;5035549;28;19917;-87
2023/01/29 20:03:18;;;;;;;;;;;;;;;6.09;100.00;100618.06;5048871;28;19963;-89
2023/01/29 20:05:43;;;;;;;;;;;;;;;4.82;100.00;100623.50;5053787;28;20356;-87
2023/01/29 20:08:08;;;;;;;;;;;;;;;4.31;100.00;100631.63;5015973;28;19925;-88
2023/01/29 20:10:34;;;;;;;;;;;;;;;4.04;100.00;100632.56;5038126;28;19931;-88
2023/01/29 20:12:59;;;;;;;;;;;;;;;3.91;100.00;100625.59;5034093;28;19921;-87
2023/01/29 20:15:24;;;;;;;;;;;;;;;3.71;100.00;100625.66;5035728;28;20007;-89
2023/01/29 20:17:49;;;;;;;;;;;;;;;3.71;100.00;100618.66;5038683;28;19925;-85
2023/01/29 20:20:16;;;;;;;;;;;;;;;3.61;100.00;100622.16;5034873;28;19929;-88
2023/01/29 20:22:41;;;;;;;;;;;;;;;3.48;100.00;100609.94;5034562;28;19922;-90
2023/01/29 20:25:06;;;;;;;;;;;;;;;3.38;100.00;100607.34;5020389;28;19936;-89
2023/01/29 20:27:32;;;;;;;;;;;;;;;3.34;100.00;100602.97;5039343;28;19922;-88
2023/01/29 20:29:58;;;;;;;;;;;;;;;3.27;100.00;100590.72;5038063;28;19925;-87
2023/01/29 20:32:23;;;;;;;;;;;;;;;3.27;100.00;100590.72;5042795;28;19964;-89
2023/01/29 20:34:50;;;;;;;;;;;;;;;3.18;100.00;100599.47;5024669;28;19974;-90
2023/01/29 20:37:16;;;;;;;;;;;;;;;3.17;100.00;100594.22;5024538;28;19921;-89
2023/01/29 20:39:41;;;;;;;;;;;;;;;3.08;100.00;100593.34;5016996;28;19917;-89
2023/01/29 20:42:06;;;;;;;;;;;;;;;3.05;100.00;100593.34;5020699;28;19925;-90
2023/01/29 20:44:31;;;;;;;;;;;;;;;3.04;100.00;100593.34;5021526;28;19924;-89
2023/01/29 20:46:58;;;;;;;;;;;;;;;3.04;100.00;100595.97;5034036;28;20027;-88
2023/01/29 20:49:24;;;;;;;;;;;;;;;2.97;100.00;100584.63;5032162;28;19921;-86
2023/01/29 20:51:49;;;;;;;;;;;;;;;2.97;100.00;100589.84;5030834;28;19917;-88
2023/01/29 20:54:14;;;;;;;;;;;;;;;2.96;100.00;100580.25;5051182;28;19927;-88
2023/01/29 20:56:40;;;;;;;;;;;;;;;2.87;100.00;100577.59;5024337;28;19924;-88
2023/01/29 20:59:06;;;;;;;;;;;;;;;2.83;100.00;100573.25;5016865;28;19999;-88
2023/01/29 21:01:31;;;;;;;;;;;;;;;2.86;100.00;100571.50;5016563;28;19955;-86
2023/01/29 21:03:56;;;;;;;;;;;;;;;2.80;100.00;100573.25;5017071;28;19925;-85
2023/01/29 21:06:21;;;;;;;;;;;;;;;2.81;100.00;100567.13;5028768;28;20384;-88
2023/01/29 21:08:47;;;;;;;;;;;;;;;2.76;100.00;100566.25;5052059;28;19970;-89
2023/01/29 21:11:12;;;;;;;;;;;;;;;2.76;100.00;100561.03;5054088;28;19921;-89
2023/01/29 21:13:41;;;;;;;;;;;;;;;2.71;100.00;100558.41;5028160;28;20019;-88
2023/01/29 21:16:09;;;;;;;;;;;;;;;2.72;100.00;100561.00;5044262;28;19921;-88
2023/01/29 21:18:34;;;;;;;;;;;;;;;2.71;100.00;100554.06;5052280;28;19986;-87
2023/01/29 21:20:59;;;;;;;;;;;;;;;3.16;100.00;100541.00;5042094;28;19960;-88
2023/01/29 21:23:25;;;;;;;;;;;;;;;3.76;100.00;100530.38;5023108;28;19920;-85
2023/01/29 21:25:50;;;;;;;;;;;;;;;4.10;100.00;100530.28;5033698;28;20035;-93
2023/01/29 21:28:15;;;;;;;;;;;;;;;4.31;100.00;100525.81;5034119;28;19917;-90
2023/01/29 21:30:41;;;;;;;;;;;;;;;4.46;100.00;100530.94;5019873;28;19928;-89
2023/01/29 21:33:06;;;;;;;;;;;;;;;4.61;100.00;100537.88;5024907;28;19929;-90
2023/01/29 21:35:31;;;;;;;;;;;;;;;4.71;100.00;100531.66;5026060;28;19997;-90
2023/01/29 21:37:57;;;;;;;;;;;;;;;4.82;100.00;100528.97;5015190;28;20379;-91
2023/01/29 21:40:24;;;;;;;;;;;;;;;4.92;100.00;100529.75;5027592;28;20409;-92
2023/01/29 21:45:33;;;;;;;;;;;;;;;5.08;100.00;100531.38;5035904;28;20055;-91
2023/01/29 21:47:58;;;;;;;;;;;;;;;5.15;100.00;100529.56;5044726;28;20400;-87
2023/01/29 21:50:23;;;;;;;;;;;;;;;5.21;100.00;100534.75;5032435;28;19921;-92
2023/01/29 21:52:49;;;;;;;;;;;;;;;5.27;100.00;100531.22;5034443;28;20011;-92
2023/01/29 21:55:14;;;;;;;;;;;;;;;5.31;100.00;100526.78;5049253;28;19921;-91
2023/01/29 21:57:41;;;;;;;;;;;;;;;5.36;100.00;100519.72;5033542;28;20315;-92
2023/01/29 22:00:07;;;;;;;;;;;;;;;5.39;100.00;100514.44;5028877;28;19975;-89
2023/01/29 22:02:32;;;;;;;;;;;;;;;5.43;100.00;100508.28;5014813;28;19917;-87
2023/01/29 22:04:59;;;;;;;;;;;;;;;5.48;100.00;100510.88;5015915;28;19924;-88
2023/01/29 22:07:24;;;;;;;;;;;;;;;5.50;100.00;100504.69;5014399;28;19917;-88
2023/01/29 22:09:50;;;;;;;;;;;;;;;5.52;100.00;100500.31;5016643;28;19927;-86
2023/01/29 22:12:15;;;;;;;;;;;;;;;5.55;100.00;100492.41;5016362;28;19925;-87
2023/01/29 22:14:40;;;;;;;;;;;;;;;5.57;100.00;100492.38;5026504;28;19917;-85
2023/01/29 22:17:09;;;;;;;;;;;;;;;5.60;100.00;100497.56;5016673;28;19968;-89
2023/01/29 22:19:34;;;;;;;;;;;;;;;5.61;100.00;100500.19;5033565;28;19917;-86
2023/01/29 22:22:00;;;;;;;;;;;;;;;5.64;100.00;100505.41;5032552;28;19917;-88
2023/01/29 22:24:25;;;;;;;;;;;;;;;5.66;100.00;100507.16;5033215;28;20383;-86
2023/01/29 22:26:50;;;;;;;;;;;;;;;5.67;100.00;100506.28;5033055;28;19917;-86
2023/01/29 22:29:16;;;;;;;;;;;;;;;5.69;100.00;100502.75;5033645;28;19943;-86
2023/01/29 22:31:42;;;;;;;;;;;;;;;5.71;100.00;100484.31;5022206;28;19921;-87
2023/01/29 22:34:11;;;;;;;;;;;;;;;5.73;100.00;100493.06;5044502;28;19921;-86
2023/01/29 22:36:36;;;;;;;;;;;;;;;5.75;100.00;100496.53;5032719;28;20279;-86
2023/01/29 22:39:02;;;;;;;;;;;;;;;5.77;100.00;100487.72;5034213;28;19921;-85
2023/01/29 22:41:27;;;;;;;;;;;;;;;5.79;100.00;100483.34;5053375;28;19927;-85
2023/01/29 22:43:52;;;;;;;;;;;;;;;5.80;100.00;100490.31;5035308;28;20019;-86
2023/01/29 22:46:17;;;;;;;;;;;;;;;5.81;100.00;100491.22;5053119;28;19944;-86
2023/01/29 22:48:43;;;;;;;;;;;;;;;5.83;100.00;100484.19;5034997;28;19917;-86
2023/01/29 22:51:09;;;;;;;;;;;;;;;5.85;100.00;100478.91;5035371;28;19939;-87
2023/01/29 22:53:38;;;;;;;;;;;;;;;5.86;100.00;100483.28;5033883;28;19921;-91
2023/01/29 22:56:04;;;;;;;;;;;;;;;5.86;100.00;100481.50;5031854;28;20200;-87
2023/01/29 22:58:40;;;;;;;;;;;;;;;;;;;;;
